sensor_id;sensor_type;location;lat;lon;timestamp;temperature;humidity
758;DHT22;363;48.764;9.172;2024-01-06T00:01:38;7.00;99.90
758;DHT22;363;48.764;9.172;2024-01-06T00:04:04;6.90;99.90
758;DHT22;363;48.764;9.172;2024-01-06T00:06:29;6.90;99.90
758;DHT22;363;48.764;9.172;2024-01-06T00:08:55;6.30;99.90
758;DHT22;363;48.764;9.172;2024-01-06T00:13:47;6.80;99.90
758;DHT22;363;48.764;9.172;2024-01-06T00:16:13;6.90;99.90
758;DHT22;363;48.764;9.172;2024-01-06T00:18:39;7.20;99.90
758;DHT22;363;48.764;9.172;2024-01-06T00:21:05;6.70;99.90
758;DHT22;363;48.764;9.172;2024-01-06T00:23:30;6.80;99.90
758;DHT22;363;48.764;9.172;2024-01-06T00:25:56;7.00;99.90
758;DHT22;363;48.764;9.172;2024-01-06T00:28:22;7.50;99.90
758;DHT22;363;48.764;9.172;2024-01-06T00:30:47;7.10;99.90
758;DHT22;363;48.764;9.172;2024-01-06T00:33:13;6.80;99.90
758;DHT22;363;48.764;9.172;2024-01-06T00:35:39;6.90;99.90
758;DHT22;363;48.764;9.172;2024-01-06T00:38:04;7.10;99.90
758;DHT22;363;48.764;9.172;2024-01-06T00:40:30;6.60;99.90
758;DHT22;363;48.764;9.172;2024-01-06T00:42:57;7.00;99.90
758;DHT22;363;48.764;9.172;2024-01-06T00:45:23;6.90;99.90
758;DHT22;363;48.764;9.172;2024-01-06T00:47:48;6.80;99.90
758;DHT22;363;48.764;9.172;2024-01-06T00:50:14;7.30;99.90
758;DHT22;363;48.764;9.172;2024-01-06T00:52:39;7.00;99.90
758;DHT22;363;48.764;9.172;2024-01-06T00:55:05;7.40;99.90
758;DHT22;363;48.764;9.172;2024-01-06T00:57:30;6.90;99.90
758;DHT22;363;48.764;9.172;2024-01-06T00:59:56;7.40;99.90
758;DHT22;363;48.764;9.172;2024-01-06T01:02:21;7.20;99.90
758;DHT22;363;48.764;9.172;2024-01-06T01:04:47;7.10;99.90
758;DHT22;363;48.764;9.172;2024-01-06T01:07:12;7.50;99.90
758;DHT22;363;48.764;9.172;2024-01-06T01:09:38;7.00;99.90
758;DHT22;363;48.764;9.172;2024-01-06T01:12:06;7.20;99.90
758;DHT22;363;48.764;9.172;2024-01-06T01:14:32;7.10;99.90
758;DHT22;363;48.764;9.172;2024-01-06T01:16:57;7.00;99.90
758;DHT22;363;48.764;9.172;2024-01-06T01:19:23;7.20;99.90
758;DHT22;363;48.764;9.172;2024-01-06T01:21:48;7.20;99.90
758;DHT22;363;48.764;9.172;2024-01-06T01:24:14;7.20;99.90
758;DHT22;363;48.764;9.172;2024-01-06T01:26:39;7.00;99.90
758;DHT22;363;48.764;9.172;2024-01-06T01:29:05;7.10;99.90
758;DHT22;363;48.764;9.172;2024-01-06T01:31:30;7.00;99.90
758;DHT22;363;48.764;9.172;2024-01-06T01:33:56;7.30;99.90
758;DHT22;363;48.764;9.172;2024-01-06T01:36:21;6.80;99.90
758;DHT22;363;48.764;9.172;2024-01-06T01:38:47;6.90;99.90
758;DHT22;363;48.764;9.172;2024-01-06T01:41:12;6.70;99.90
758;DHT22;363;48.764;9.172;2024-01-06T01:43:38;6.60;99.90
758;DHT22;363;48.764;9.172;2024-01-06T01:46:04;6.80;99.90
758;DHT22;363;48.764;9.172;2024-01-06T01:48:30;6.70;99.90
758;DHT22;363;48.764;9.172;2024-01-06T01:50:56;7.20;99.90
758;DHT22;363;48.764;9.172;2024-01-06T01:53:23;6.80;99.90
758;DHT22;363;48.764;9.172;2024-01-06T01:55:50;6.80;99.90
758;DHT22;363;48.764;9.172;2024-01-06T01:58:16;6.80;99.90
758;DHT22;363;48.764;9.172;2024-01-06T02:00:42;6.80;99.90
758;DHT22;363;48.764;9.172;2024-01-06T02:03:09;6.80;99.90
758;DHT22;363;48.764;9.172;2024-01-06T02:05:36;6.20;99.90
758;DHT22;363;48.764;9.172;2024-01-06T02:08:02;6.70;99.90
758;DHT22;363;48.764;9.172;2024-01-06T02:10:30;6.60;99.90
758;DHT22;363;48.764;9.172;2024-01-06T02:12:56;6.60;99.90
758;DHT22;363;48.764;9.172;2024-01-06T02:15:21;6.70;99.90
758;DHT22;363;48.764;9.172;2024-01-06T02:17:47;6.90;99.90
758;DHT22;363;48.764;9.172;2024-01-06T02:20:13;6.90;99.90
758;DHT22;363;48.764;9.172;2024-01-06T02:22:39;6.90;99.90
758;DHT22;363;48.764;9.172;2024-01-06T02:25:07;7.00;99.90
758;DHT22;363;48.764;9.172;2024-01-06T02:27:38;7.00;99.90
758;DHT22;363;48.764;9.172;2024-01-06T02:30:05;6.80;99.90
758;DHT22;363;48.764;9.172;2024-01-06T02:32:31;6.70;99.90
758;DHT22;363;48.764;9.172;2024-01-06T02:34:56;7.00;99.90
758;DHT22;363;48.764;9.172;2024-01-06T02:37:22;6.40;99.90
758;DHT22;363;48.764;9.172;2024-01-06T02:39:47;6.50;99.90
758;DHT22;363;48.764;9.172;2024-01-06T02:42:13;6.80;99.90
758;DHT22;363;48.764;9.172;2024-01-06T02:44:38;6.80;99.90
758;DHT22;363;48.764;9.172;2024-01-06T02:47:04;6.70;99.90
758;DHT22;363;48.764;9.172;2024-01-06T02:49:30;6.80;99.90
758;DHT22;363;48.764;9.172;2024-01-06T02:51:55;6.90;99.90
758;DHT22;363;48.764;9.172;2024-01-06T02:54:21;6.80;99.90
758;DHT22;363;48.764;9.172;2024-01-06T02:56:47;6.90;99.90
758;DHT22;363;48.764;9.172;2024-01-06T02:59:13;6.70;99.90
758;DHT22;363;48.764;9.172;2024-01-06T03:01:39;6.50;99.90
758;DHT22;363;48.764;9.172;2024-01-06T03:04:04;6.20;99.90
758;DHT22;363;48.764;9.172;2024-01-06T03:06:29;6.70;99.90
758;DHT22;363;48.764;9.172;2024-01-06T03:08:55;6.60;99.90
758;DHT22;363;48.764;9.172;2024-01-06T03:11:20;6.50;99.90
758;DHT22;363;48.764;9.172;2024-01-06T03:13:46;6.50;99.90
758;DHT22;363;48.764;9.172;2024-01-06T03:16:11;6.30;99.90
758;DHT22;363;48.764;9.172;2024-01-06T03:18:38;6.90;99.90
758;DHT22;363;48.764;9.172;2024-01-06T03:21:03;6.20;99.90
758;DHT22;363;48.764;9.172;2024-01-06T03:23:29;6.30;99.90
758;DHT22;363;48.764;9.172;2024-01-06T03:25:54;6.30;99.90
758;DHT22;363;48.764;9.172;2024-01-06T03:28:20;6.30;99.90
758;DHT22;363;48.764;9.172;2024-01-06T03:30:45;6.30;99.90
758;DHT22;363;48.764;9.172;2024-01-06T03:33:11;5.90;99.90
758;DHT22;363;48.764;9.172;2024-01-06T03:35:37;6.20;99.90
758;DHT22;363;48.764;9.172;2024-01-06T03:38:03;6.20;99.90
758;DHT22;363;48.764;9.172;2024-01-06T03:40:28;6.30;99.90
758;DHT22;363;48.764;9.172;2024-01-06T03:42:54;6.30;99.90
758;DHT22;363;48.764;9.172;2024-01-06T03:45:19;6.70;99.90
758;DHT22;363;48.764;9.172;2024-01-06T03:47:45;6.70;99.90
758;DHT22;363;48.764;9.172;2024-01-06T03:50:11;6.50;99.90
758;DHT22;363;48.764;9.172;2024-01-06T03:52:38;6.20;99.90
758;DHT22;363;48.764;9.172;2024-01-06T03:55:05;6.10;99.90
758;DHT22;363;48.764;9.172;2024-01-06T03:57:30;6.30;99.90
758;DHT22;363;48.764;9.172;2024-01-06T03:59:56;6.50;99.90
758;DHT22;363;48.764;9.172;2024-01-06T04:02:22;6.50;99.90
758;DHT22;363;48.764;9.172;2024-01-06T04:04:47;6.50;99.90
758;DHT22;363;48.764;9.172;2024-01-06T04:07:13;6.60;99.90
758;DHT22;363;48.764;9.172;2024-01-06T04:09:42;6.50;99.90
758;DHT22;363;48.764;9.172;2024-01-06T04:12:07;6.70;99.90
758;DHT22;363;48.764;9.172;2024-01-06T04:14:33;6.30;99.90
758;DHT22;363;48.764;9.172;2024-01-06T04:16:58;6.50;99.90
758;DHT22;363;48.764;9.172;2024-01-06T04:19:24;6.70;99.90
758;DHT22;363;48.764;9.172;2024-01-06T04:21:49;6.10;99.90
758;DHT22;363;48.764;9.172;2024-01-06T04:24:15;6.20;99.90
758;DHT22;363;48.764;9.172;2024-01-06T04:26:40;6.50;99.90
758;DHT22;363;48.764;9.172;2024-01-06T04:29:06;6.50;99.90
758;DHT22;363;48.764;9.172;2024-01-06T04:31:33;6.70;99.90
758;DHT22;363;48.764;9.172;2024-01-06T04:33:59;6.90;99.90
758;DHT22;363;48.764;9.172;2024-01-06T04:36:24;6.40;99.90
758;DHT22;363;48.764;9.172;2024-01-06T04:38:50;6.40;99.90
758;DHT22;363;48.764;9.172;2024-01-06T04:41:15;6.50;99.90
758;DHT22;363;48.764;9.172;2024-01-06T04:43:41;6.30;99.90
758;DHT22;363;48.764;9.172;2024-01-06T04:46:06;6.30;99.90
758;DHT22;363;48.764;9.172;2024-01-06T04:48:32;6.30;99.90
758;DHT22;363;48.764;9.172;2024-01-06T04:50:57;6.70;99.90
758;DHT22;363;48.764;9.172;2024-01-06T04:53:23;6.30;99.90
758;DHT22;363;48.764;9.172;2024-01-06T04:55:48;6.20;99.90
758;DHT22;363;48.764;9.172;2024-01-06T04:58:14;6.30;99.90
758;DHT22;363;48.764;9.172;2024-01-06T05:00:39;6.70;99.90
758;DHT22;363;48.764;9.172;2024-01-06T05:03:05;6.60;99.90
758;DHT22;363;48.764;9.172;2024-01-06T05:05:30;6.40;99.90
758;DHT22;363;48.764;9.172;2024-01-06T05:07:56;6.60;99.90
758;DHT22;363;48.764;9.172;2024-01-06T05:10:21;6.80;99.90
758;DHT22;363;48.764;9.172;2024-01-06T05:12:47;6.20;99.90
758;DHT22;363;48.764;9.172;2024-01-06T05:15:13;6.70;99.90
758;DHT22;363;48.764;9.172;2024-01-06T05:17:39;6.20;99.90
758;DHT22;363;48.764;9.172;2024-01-06T05:20:05;6.10;99.90
758;DHT22;363;48.764;9.172;2024-01-06T05:22:30;6.00;99.90
758;DHT22;363;48.764;9.172;2024-01-06T05:24:56;6.00;99.90
758;DHT22;363;48.764;9.172;2024-01-06T05:27:21;5.90;99.90
758;DHT22;363;48.764;9.172;2024-01-06T05:29:47;6.60;99.90
758;DHT22;363;48.764;9.172;2024-01-06T05:32:15;6.30;99.90
758;DHT22;363;48.764;9.172;2024-01-06T05:34:41;6.10;99.90
758;DHT22;363;48.764;9.172;2024-01-06T05:37:06;6.40;99.90
758;DHT22;363;48.764;9.172;2024-01-06T05:39:32;6.30;99.90
758;DHT22;363;48.764;9.172;2024-01-06T05:41:57;6.10;99.90
758;DHT22;363;48.764;9.172;2024-01-06T05:44:23;6.00;99.90
758;DHT22;363;48.764;9.172;2024-01-06T05:46:48;6.20;99.90
758;DHT22;363;48.764;9.172;2024-01-06T05:49:14;6.30;99.90
758;DHT22;363;48.764;9.172;2024-01-06T05:51:44;6.10;99.90
758;DHT22;363;48.764;9.172;2024-01-06T05:54:10;6.40;99.90
758;DHT22;363;48.764;9.172;2024-01-06T05:56:35;6.20;99.90
758;DHT22;363;48.764;9.172;2024-01-06T05:59:01;5.90;99.90
758;DHT22;363;48.764;9.172;2024-01-06T06:01:28;6.70;99.90
758;DHT22;363;48.764;9.172;2024-01-06T06:03:53;6.20;99.90
758;DHT22;363;48.764;9.172;2024-01-06T06:06:19;6.20;99.90
758;DHT22;363;48.764;9.172;2024-01-06T06:08:46;6.70;99.90
758;DHT22;363;48.764;9.172;2024-01-06T06:11:11;6.20;99.90
758;DHT22;363;48.764;9.172;2024-01-06T06:13:38;6.30;99.90
758;DHT22;363;48.764;9.172;2024-01-06T06:16:05;6.40;99.90
758;DHT22;363;48.764;9.172;2024-01-06T06:18:30;6.40;99.90
758;DHT22;363;48.764;9.172;2024-01-06T06:20:56;6.80;99.90
758;DHT22;363;48.764;9.172;2024-01-06T06:23:21;6.10;99.90
758;DHT22;363;48.764;9.172;2024-01-06T06:25:47;6.70;99.90
758;DHT22;363;48.764;9.172;2024-01-06T06:28:14;6.60;99.90
758;DHT22;363;48.764;9.172;2024-01-06T06:30:39;6.50;99.90
758;DHT22;363;48.764;9.172;2024-01-06T06:33:05;6.90;99.90
758;DHT22;363;48.764;9.172;2024-01-06T06:35:30;6.70;99.90
758;DHT22;363;48.764;9.172;2024-01-06T06:37:56;6.60;99.90
758;DHT22;363;48.764;9.172;2024-01-06T06:40:21;6.80;99.90
758;DHT22;363;48.764;9.172;2024-01-06T06:42:47;6.60;99.90
758;DHT22;363;48.764;9.172;2024-01-06T06:45:13;6.70;99.90
758;DHT22;363;48.764;9.172;2024-01-06T06:47:38;6.80;99.90
758;DHT22;363;48.764;9.172;2024-01-06T06:50:04;6.50;99.90
758;DHT22;363;48.764;9.172;2024-01-06T06:52:30;6.50;99.90
758;DHT22;363;48.764;9.172;2024-01-06T06:54:56;6.40;99.90
758;DHT22;363;48.764;9.172;2024-01-06T06:57:21;6.60;99.90
758;DHT22;363;48.764;9.172;2024-01-06T06:59:47;6.50;99.90
758;DHT22;363;48.764;9.172;2024-01-06T07:02:13;6.60;99.90
758;DHT22;363;48.764;9.172;2024-01-06T07:04:38;6.70;99.90
758;DHT22;363;48.764;9.172;2024-01-06T07:07:04;6.50;99.90
758;DHT22;363;48.764;9.172;2024-01-06T07:09:29;6.70;99.90
758;DHT22;363;48.764;9.172;2024-01-06T07:11:55;6.60;99.90
758;DHT22;363;48.764;9.172;2024-01-06T07:14:20;6.40;99.90
758;DHT22;363;48.764;9.172;2024-01-06T07:16:46;6.90;99.90
758;DHT22;363;48.764;9.172;2024-01-06T07:19:11;6.50;99.90
758;DHT22;363;48.764;9.172;2024-01-06T07:21:37;6.60;99.90
758;DHT22;363;48.764;9.172;2024-01-06T07:24:03;6.60;99.90
758;DHT22;363;48.764;9.172;2024-01-06T07:26:28;6.40;99.90
758;DHT22;363;48.764;9.172;2024-01-06T07:28:55;6.60;99.90
758;DHT22;363;48.764;9.172;2024-01-06T07:31:20;6.50;99.90
758;DHT22;363;48.764;9.172;2024-01-06T07:33:46;6.60;99.90
758;DHT22;363;48.764;9.172;2024-01-06T07:36:11;6.60;99.90
758;DHT22;363;48.764;9.172;2024-01-06T07:38:37;6.80;99.90
758;DHT22;363;48.764;9.172;2024-01-06T07:41:03;6.40;99.90
758;DHT22;363;48.764;9.172;2024-01-06T07:43:30;7.00;99.90
758;DHT22;363;48.764;9.172;2024-01-06T07:45:56;6.50;99.90
758;DHT22;363;48.764;9.172;2024-01-06T07:48:21;6.60;99.90
758;DHT22;363;48.764;9.172;2024-01-06T07:50:47;6.60;99.90
758;DHT22;363;48.764;9.172;2024-01-06T07:53:12;6.70;99.90
758;DHT22;363;48.764;9.172;2024-01-06T07:55:39;6.90;99.90
758;DHT22;363;48.764;9.172;2024-01-06T07:58:05;6.40;99.90
758;DHT22;363;48.764;9.172;2024-01-06T08:00:31;6.40;99.90
758;DHT22;363;48.764;9.172;2024-01-06T08:02:56;6.60;99.90
758;DHT22;363;48.764;9.172;2024-01-06T08:05:22;6.70;99.90
758;DHT22;363;48.764;9.172;2024-01-06T08:07:47;7.00;99.90
758;DHT22;363;48.764;9.172;2024-01-06T08:10:13;7.10;99.90
758;DHT22;363;48.764;9.172;2024-01-06T08:12:38;7.10;99.90
758;DHT22;363;48.764;9.172;2024-01-06T08:15:04;6.60;99.90
758;DHT22;363;48.764;9.172;2024-01-06T08:17:30;6.70;99.90
758;DHT22;363;48.764;9.172;2024-01-06T08:19:56;7.10;99.90
758;DHT22;363;48.764;9.172;2024-01-06T08:22:21;6.90;99.90
758;DHT22;363;48.764;9.172;2024-01-06T08:24:47;6.90;99.90
758;DHT22;363;48.764;9.172;2024-01-06T08:27:13;7.40;99.90
758;DHT22;363;48.764;9.172;2024-01-06T08:29:39;7.00;99.90
758;DHT22;363;48.764;9.172;2024-01-06T08:32:04;7.30;99.90
758;DHT22;363;48.764;9.172;2024-01-06T08:34:30;7.20;99.90
758;DHT22;363;48.764;9.172;2024-01-06T08:36:56;7.00;99.90
758;DHT22;363;48.764;9.172;2024-01-06T08:39:21;8.50;99.90
758;DHT22;363;48.764;9.172;2024-01-06T08:41:47;7.30;99.90
758;DHT22;363;48.764;9.172;2024-01-06T08:44:13;7.30;99.90
758;DHT22;363;48.764;9.172;2024-01-06T08:46:38;7.60;99.90
758;DHT22;363;48.764;9.172;2024-01-06T08:49:05;7.80;99.90
758;DHT22;363;48.764;9.172;2024-01-06T08:51:30;7.40;99.90
758;DHT22;363;48.764;9.172;2024-01-06T08:53:56;7.50;99.90
758;DHT22;363;48.764;9.172;2024-01-06T08:56:22;7.90;99.90
758;DHT22;363;48.764;9.172;2024-01-06T08:58:47;7.70;99.90
758;DHT22;363;48.764;9.172;2024-01-06T09:01:13;8.20;99.90
758;DHT22;363;48.764;9.172;2024-01-06T09:03:41;8.00;99.90
758;DHT22;363;48.764;9.172;2024-01-06T09:06:06;7.80;99.90
758;DHT22;363;48.764;9.172;2024-01-06T09:08:32;7.90;99.90
758;DHT22;363;48.764;9.172;2024-01-06T09:10:58;7.80;99.90
758;DHT22;363;48.764;9.172;2024-01-06T09:13:24;8.30;99.90
758;DHT22;363;48.764;9.172;2024-01-06T09:15:51;7.90;99.90
758;DHT22;363;48.764;9.172;2024-01-06T09:18:16;8.40;99.90
758;DHT22;363;48.764;9.172;2024-01-06T09:20:42;8.20;99.90
758;DHT22;363;48.764;9.172;2024-01-06T09:23:07;8.50;99.90
758;DHT22;363;48.764;9.172;2024-01-06T09:25:33;8.60;99.90
758;DHT22;363;48.764;9.172;2024-01-06T09:27:58;8.50;99.90
758;DHT22;363;48.764;9.172;2024-01-06T09:30:24;8.20;99.90
758;DHT22;363;48.764;9.172;2024-01-06T09:32:51;8.10;99.90
758;DHT22;363;48.764;9.172;2024-01-06T09:35:16;8.40;99.90
758;DHT22;363;48.764;9.172;2024-01-06T09:37:42;8.40;99.90
758;DHT22;363;48.764;9.172;2024-01-06T09:40:12;8.90;99.90
758;DHT22;363;48.764;9.172;2024-01-06T09:42:38;8.50;99.90
758;DHT22;363;48.764;9.172;2024-01-06T09:45:05;8.90;99.90
758;DHT22;363;48.764;9.172;2024-01-06T09:47:34;8.70;99.90
758;DHT22;363;48.764;9.172;2024-01-06T09:50:01;8.70;99.90
758;DHT22;363;48.764;9.172;2024-01-06T09:52:30;9.00;99.90
758;DHT22;363;48.764;9.172;2024-01-06T09:54:59;9.10;99.90
758;DHT22;363;48.764;9.172;2024-01-06T09:57:26;8.60;99.90
758;DHT22;363;48.764;9.172;2024-01-06T09:59:51;9.00;99.90
758;DHT22;363;48.764;9.172;2024-01-06T10:02:18;8.90;99.90
758;DHT22;363;48.764;9.172;2024-01-06T10:04:44;8.70;99.90
758;DHT22;363;48.764;9.172;2024-01-06T10:07:11;8.60;99.90
758;DHT22;363;48.764;9.172;2024-01-06T10:09:40;8.80;99.90
758;DHT22;363;48.764;9.172;2024-01-06T10:12:07;9.10;99.90
758;DHT22;363;48.764;9.172;2024-01-06T10:14:32;8.80;99.90
758;DHT22;363;48.764;9.172;2024-01-06T10:16:58;8.60;99.90
758;DHT22;363;48.764;9.172;2024-01-06T10:19:24;9.20;99.90
758;DHT22;363;48.764;9.172;2024-01-06T10:21:49;9.30;99.90
758;DHT22;363;48.764;9.172;2024-01-06T10:24:18;9.00;99.90
758;DHT22;363;48.764;9.172;2024-01-06T10:26:45;8.80;99.90
758;DHT22;363;48.764;9.172;2024-01-06T10:29:12;8.90;99.90
758;DHT22;363;48.764;9.172;2024-01-06T10:31:38;8.70;99.90
758;DHT22;363;48.764;9.172;2024-01-06T10:34:05;8.60;99.90
758;DHT22;363;48.764;9.172;2024-01-06T10:36:31;9.10;99.90
758;DHT22;363;48.764;9.172;2024-01-06T10:38:57;8.90;99.90
758;DHT22;363;48.764;9.172;2024-01-06T10:41:24;9.40;99.90
758;DHT22;363;48.764;9.172;2024-01-06T10:43:51;8.90;99.90
758;DHT22;363;48.764;9.172;2024-01-06T10:46:19;9.20;99.90
758;DHT22;363;48.764;9.172;2024-01-06T10:48:45;8.80;99.90
758;DHT22;363;48.764;9.172;2024-01-06T10:51:12;8.70;99.90
758;DHT22;363;48.764;9.172;2024-01-06T10:53:40;8.40;99.90
758;DHT22;363;48.764;9.172;2024-01-06T10:56:07;8.40;99.90
758;DHT22;363;48.764;9.172;2024-01-06T10:58:34;8.40;99.90
758;DHT22;363;48.764;9.172;2024-01-06T11:01:03;8.40;99.90
758;DHT22;363;48.764;9.172;2024-01-06T11:03:29;8.40;99.90
758;DHT22;363;48.764;9.172;2024-01-06T11:05:54;8.40;99.90
758;DHT22;363;48.764;9.172;2024-01-06T11:08:21;8.40;99.90
758;DHT22;363;48.764;9.172;2024-01-06T11:10:47;8.60;99.90
758;DHT22;363;48.764;9.172;2024-01-06T11:13:14;8.80;99.90
758;DHT22;363;48.764;9.172;2024-01-06T11:15:48;8.30;99.90
758;DHT22;363;48.764;9.172;2024-01-06T11:18:33;8.60;99.90
758;DHT22;363;48.764;9.172;2024-01-06T11:23:40;8.40;99.90
758;DHT22;363;48.764;9.172;2024-01-06T11:26:09;8.40;99.90
758;DHT22;363;48.764;9.172;2024-01-06T11:28:47;8.60;99.90
758;DHT22;363;48.764;9.172;2024-01-06T11:31:13;9.00;99.90
758;DHT22;363;48.764;9.172;2024-01-06T11:33:45;8.60;99.90
758;DHT22;363;48.764;9.172;2024-01-06T11:36:15;8.60;99.90
758;DHT22;363;48.764;9.172;2024-01-06T11:38:41;9.20;99.90
758;DHT22;363;48.764;9.172;2024-01-06T11:41:07;8.90;99.90
758;DHT22;363;48.764;9.172;2024-01-06T11:43:34;9.00;99.90
758;DHT22;363;48.764;9.172;2024-01-06T11:46:01;9.40;99.90
758;DHT22;363;48.764;9.172;2024-01-06T11:48:29;9.10;99.90
758;DHT22;363;48.764;9.172;2024-01-06T11:50:57;8.80;99.90
758;DHT22;363;48.764;9.172;2024-01-06T11:53:28;9.00;99.90
758;DHT22;363;48.764;9.172;2024-01-06T11:55:53;9.10;99.90
758;DHT22;363;48.764;9.172;2024-01-06T11:58:19;9.10;99.90
758;DHT22;363;48.764;9.172;2024-01-06T12:00:55;9.60;99.90
758;DHT22;363;48.764;9.172;2024-01-06T12:03:20;9.00;99.90
758;DHT22;363;48.764;9.172;2024-01-06T12:05:51;9.20;99.90
758;DHT22;363;48.764;9.172;2024-01-06T12:08:24;9.10;99.90
758;DHT22;363;48.764;9.172;2024-01-06T12:10:49;9.60;99.90
758;DHT22;363;48.764;9.172;2024-01-06T12:13:15;9.00;99.90
758;DHT22;363;48.764;9.172;2024-01-06T12:15:42;9.00;99.90
758;DHT22;363;48.764;9.172;2024-01-06T12:18:08;9.40;99.90
758;DHT22;363;48.764;9.172;2024-01-06T12:20:34;8.10;99.90
758;DHT22;363;48.764;9.172;2024-01-06T12:22:59;8.40;99.90
758;DHT22;363;48.764;9.172;2024-01-06T12:25:27;8.50;99.90
758;DHT22;363;48.764;9.172;2024-01-06T12:27:54;8.50;99.90
758;DHT22;363;48.764;9.172;2024-01-06T12:30:21;8.50;99.90
758;DHT22;363;48.764;9.172;2024-01-06T12:32:47;8.90;99.90
758;DHT22;363;48.764;9.172;2024-01-06T12:35:20;8.60;99.90
758;DHT22;363;48.764;9.172;2024-01-06T12:37:46;7.90;99.90
758;DHT22;363;48.764;9.172;2024-01-06T12:40:13;8.70;99.90
758;DHT22;363;48.764;9.172;2024-01-06T12:42:38;8.90;99.90
758;DHT22;363;48.764;9.172;2024-01-06T12:45:05;8.90;99.90
758;DHT22;363;48.764;9.172;2024-01-06T12:47:32;8.50;99.90
758;DHT22;363;48.764;9.172;2024-01-06T12:49:57;8.70;99.90
758;DHT22;363;48.764;9.172;2024-01-06T12:52:24;9.00;99.90
758;DHT22;363;48.764;9.172;2024-01-06T12:54:50;8.80;99.90
758;DHT22;363;48.764;9.172;2024-01-06T12:57:16;8.90;99.90
758;DHT22;363;48.764;9.172;2024-01-06T12:59:42;8.60;99.90
758;DHT22;363;48.764;9.172;2024-01-06T13:02:08;8.80;99.90
758;DHT22;363;48.764;9.172;2024-01-06T13:04:34;8.80;99.90
758;DHT22;363;48.764;9.172;2024-01-06T13:07:00;8.30;99.90
758;DHT22;363;48.764;9.172;2024-01-06T13:09:25;8.90;99.90
758;DHT22;363;48.764;9.172;2024-01-06T13:11:51;8.40;99.90
758;DHT22;363;48.764;9.172;2024-01-06T13:14:17;8.20;99.90
758;DHT22;363;48.764;9.172;2024-01-06T13:16:43;8.60;99.90
758;DHT22;363;48.764;9.172;2024-01-06T13:19:09;8.70;99.90
758;DHT22;363;48.764;9.172;2024-01-06T13:21:34;8.10;99.90
758;DHT22;363;48.764;9.172;2024-01-06T13:24:01;8.10;99.90
758;DHT22;363;48.764;9.172;2024-01-06T13:26:29;8.70;99.90
758;DHT22;363;48.764;9.172;2024-01-06T13:28:55;8.10;99.90
758;DHT22;363;48.764;9.172;2024-01-06T13:31:20;8.10;99.90
758;DHT22;363;48.764;9.172;2024-01-06T13:33:46;8.30;99.90
758;DHT22;363;48.764;9.172;2024-01-06T13:36:12;8.10;99.90
758;DHT22;363;48.764;9.172;2024-01-06T13:38:38;8.50;99.90
758;DHT22;363;48.764;9.172;2024-01-06T13:41:03;8.20;99.90
758;DHT22;363;48.764;9.172;2024-01-06T13:43:29;8.10;99.90
758;DHT22;363;48.764;9.172;2024-01-06T13:45:55;8.30;99.90
758;DHT22;363;48.764;9.172;2024-01-06T13:48:21;8.40;99.90
758;DHT22;363;48.764;9.172;2024-01-06T13:50:47;8.60;99.90
758;DHT22;363;48.764;9.172;2024-01-06T13:53:13;8.50;99.90
758;DHT22;363;48.764;9.172;2024-01-06T13:55:39;8.50;99.90
758;DHT22;363;48.764;9.172;2024-01-06T13:58:05;8.40;99.90
758;DHT22;363;48.764;9.172;2024-01-06T14:00:35;8.00;99.90
758;DHT22;363;48.764;9.172;2024-01-06T14:03:00;8.30;99.90
758;DHT22;363;48.764;9.172;2024-01-06T14:05:26;8.00;99.90
758;DHT22;363;48.764;9.172;2024-01-06T14:07:52;7.90;99.90
758;DHT22;363;48.764;9.172;2024-01-06T14:10:19;8.10;99.90
758;DHT22;363;48.764;9.172;2024-01-06T14:12:46;7.80;99.90
758;DHT22;363;48.764;9.172;2024-01-06T14:15:11;7.80;99.90
758;DHT22;363;48.764;9.172;2024-01-06T14:17:38;7.10;99.90
758;DHT22;363;48.764;9.172;2024-01-06T14:20:04;8.00;99.90
758;DHT22;363;48.764;9.172;2024-01-06T14:22:30;7.70;99.90
758;DHT22;363;48.764;9.172;2024-01-06T14:24:56;8.10;99.90
758;DHT22;363;48.764;9.172;2024-01-06T14:27:21;7.90;99.90
758;DHT22;363;48.764;9.172;2024-01-06T14:29:48;7.90;99.90
758;DHT22;363;48.764;9.172;2024-01-06T14:32:14;8.00;99.90
758;DHT22;363;48.764;9.172;2024-01-06T14:34:40;8.30;99.90
758;DHT22;363;48.764;9.172;2024-01-06T14:37:06;8.00;99.90
758;DHT22;363;48.764;9.172;2024-01-06T14:39:31;7.40;99.90
758;DHT22;363;48.764;9.172;2024-01-06T14:41:57;7.90;99.90
758;DHT22;363;48.764;9.172;2024-01-06T14:44:22;7.60;99.90
758;DHT22;363;48.764;9.172;2024-01-06T14:46:49;7.80;99.90
758;DHT22;363;48.764;9.172;2024-01-06T14:49:16;7.90;99.90
758;DHT22;363;48.764;9.172;2024-01-06T14:51:42;7.20;99.90
758;DHT22;363;48.764;9.172;2024-01-06T14:54:08;8.00;99.90
758;DHT22;363;48.764;9.172;2024-01-06T14:56:37;7.50;99.90
758;DHT22;363;48.764;9.172;2024-01-06T14:59:04;7.90;99.90
758;DHT22;363;48.764;9.172;2024-01-06T15:01:31;8.00;99.90
758;DHT22;363;48.764;9.172;2024-01-06T15:03:57;7.70;99.90
758;DHT22;363;48.764;9.172;2024-01-06T15:06:23;7.70;99.90
758;DHT22;363;48.764;9.172;2024-01-06T15:08:49;8.10;99.90
758;DHT22;363;48.764;9.172;2024-01-06T15:11:15;8.10;99.90
758;DHT22;363;48.764;9.172;2024-01-06T15:13:41;8.00;99.90
758;DHT22;363;48.764;9.172;2024-01-06T15:16:07;7.20;99.90
758;DHT22;363;48.764;9.172;2024-01-06T15:18:33;8.10;99.90
758;DHT22;363;48.764;9.172;2024-01-06T15:20:58;8.10;99.90
758;DHT22;363;48.764;9.172;2024-01-06T15:23:24;7.80;99.90
758;DHT22;363;48.764;9.172;2024-01-06T15:25:50;7.70;99.90
758;DHT22;363;48.764;9.172;2024-01-06T15:28:15;8.30;99.90
758;DHT22;363;48.764;9.172;2024-01-06T15:30:41;7.80;99.90
758;DHT22;363;48.764;9.172;2024-01-06T15:33:07;7.70;99.90
758;DHT22;363;48.764;9.172;2024-01-06T15:35:32;7.70;99.90
758;DHT22;363;48.764;9.172;2024-01-06T15:37:58;7.90;99.90
758;DHT22;363;48.764;9.172;2024-01-06T15:40:23;7.60;99.90
758;DHT22;363;48.764;9.172;2024-01-06T15:42:49;7.90;99.90
758;DHT22;363;48.764;9.172;2024-01-06T15:45:14;7.50;99.90
758;DHT22;363;48.764;9.172;2024-01-06T15:47:40;7.60;99.90
758;DHT22;363;48.764;9.172;2024-01-06T15:50:06;7.90;99.90
758;DHT22;363;48.764;9.172;2024-01-06T15:52:35;7.60;99.90
758;DHT22;363;48.764;9.172;2024-01-06T15:55:03;7.70;99.90
758;DHT22;363;48.764;9.172;2024-01-06T15:57:28;7.70;99.90
758;DHT22;363;48.764;9.172;2024-01-06T15:59:56;7.90;99.90
758;DHT22;363;48.764;9.172;2024-01-06T16:02:22;7.60;99.90
758;DHT22;363;48.764;9.172;2024-01-06T16:04:48;8.00;99.90
758;DHT22;363;48.764;9.172;2024-01-06T16:07:13;8.10;99.90
758;DHT22;363;48.764;9.172;2024-01-06T16:09:39;8.00;99.90
758;DHT22;363;48.764;9.172;2024-01-06T16:12:05;7.50;99.90
758;DHT22;363;48.764;9.172;2024-01-06T16:14:32;7.40;99.90
758;DHT22;363;48.764;9.172;2024-01-06T16:16:57;7.60;99.90
758;DHT22;363;48.764;9.172;2024-01-06T16:19:28;7.40;99.90
758;DHT22;363;48.764;9.172;2024-01-06T16:21:53;8.90;99.90
758;DHT22;363;48.764;9.172;2024-01-06T16:24:22;7.40;99.90
758;DHT22;363;48.764;9.172;2024-01-06T16:26:52;7.80;99.90
758;DHT22;363;48.764;9.172;2024-01-06T16:29:17;7.20;99.90
758;DHT22;363;48.764;9.172;2024-01-06T16:31:43;7.80;99.90
758;DHT22;363;48.764;9.172;2024-01-06T16:34:08;7.80;99.90
758;DHT22;363;48.764;9.172;2024-01-06T16:36:34;7.50;99.90
758;DHT22;363;48.764;9.172;2024-01-06T16:39:00;7.20;99.90
758;DHT22;363;48.764;9.172;2024-01-06T16:41:25;7.30;99.90
758;DHT22;363;48.764;9.172;2024-01-06T16:43:51;7.40;99.90
758;DHT22;363;48.764;9.172;2024-01-06T16:46:17;7.20;99.90
758;DHT22;363;48.764;9.172;2024-01-06T16:48:43;6.90;99.90